sensor_id;sensor_type;location;lat;lon;timestamp;pressure;altitude;pressure_sealevel;temperature;humidity
82949;BME280;72736;50.236;18.876;2024-02-23T00:01:56;96749.32;;;8.94;67.89
82949;BME280;72736;50.236;18.876;2024-02-23T00:07:02;96750.14;;;8.95;67.95
82949;BME280;72736;50.236;18.876;2024-02-23T00:12:08;96746.43;;;8.93;67.96
82949;BME280;72736;50.236;18.876;2024-02-23T00:17:15;96749.96;;;8.94;67.80
82949;BME280;72736;50.236;18.876;2024-02-23T00:22:21;96744.14;;;8.93;67.88
82949;BME280;72736;50.236;18.876;2024-02-23T00:27:28;96740.23;;;8.93;67.86
82949;BME280;72736;50.236;18.876;2024-02-23T00:32:33;96737.41;;;8.93;67.93
82949;BME280;72736;50.236;18.876;2024-02-23T00:37:39;96739.21;;;8.92;67.94
82949;BME280;72736;50.236;18.876;2024-02-23T00:42:45;96738.46;;;8.90;68.08
82949;BME280;72736;50.236;18.876;2024-02-23T00:47:51;96746.18;;;8.87;68.15
82949;BME280;72736;50.236;18.876;2024-02-23T00:52:57;96741.05;;;8.86;68.31
82949;BME280;72736;50.236;18.876;2024-02-23T00:58:03;96735.27;;;8.86;68.32
82949;BME280;72736;50.236;18.876;2024-02-23T01:03:09;96739.77;;;8.86;68.28
82949;BME280;72736;50.236;18.876;2024-02-23T01:08:14;96746.42;;;8.86;68.31
82949;BME280;72736;50.236;18.876;2024-02-23T01:13:20;96745.96;;;8.87;68.09
82949;BME280;72736;50.236;18.876;2024-02-23T01:18:26;96751.05;;;8.89;67.86
82949;BME280;72736;50.236;18.876;2024-02-23T01:23:32;96746.73;;;8.91;67.79
82949;BME280;72736;50.236;18.876;2024-02-23T01:28:38;96750.42;;;8.91;67.78
82949;BME280;72736;50.236;18.876;2024-02-23T01:33:43;96757.12;;;8.92;67.47
82949;BME280;72736;50.236;18.876;2024-02-23T01:38:49;96754.66;;;8.93;67.29
82949;BME280;72736;50.236;18.876;2024-02-23T01:43:55;96753.12;;;8.95;67.38
82949;BME280;72736;50.236;18.876;2024-02-23T01:49:01;96751.00;;;8.96;67.35
82949;BME280;72736;50.236;18.876;2024-02-23T01:54:07;96741.11;;;8.96;67.33
82949;BME280;72736;50.236;18.876;2024-02-23T01:59:13;96739.67;;;8.96;67.41
82949;BME280;72736;50.236;18.876;2024-02-23T02:04:19;96739.13;;;8.95;67.33
82949;BME280;72736;50.236;18.876;2024-02-23T02:09:25;96733.20;;;8.96;67.18
82949;BME280;72736;50.236;18.876;2024-02-23T02:14:30;96736.08;;;8.96;67.13
82949;BME280;72736;50.236;18.876;2024-02-23T02:19:38;96743.45;;;8.95;67.11
82949;BME280;72736;50.236;18.876;2024-02-23T02:24:43;96748.84;;;8.95;66.98
82949;BME280;72736;50.236;18.876;2024-02-23T02:29:52;96753.65;;;8.95;67.19
82949;BME280;72736;50.236;18.876;2024-02-23T02:34:58;96753.81;;;8.93;67.38
82949;BME280;72736;50.236;18.876;2024-02-23T02:40:07;96770.30;;;8.93;67.71
82949;BME280;72736;50.236;18.876;2024-02-23T02:45:12;96782.52;;;8.92;68.28
82949;BME280;72736;50.236;18.876;2024-02-23T02:50:21;96781.59;;;8.90;68.71
82949;BME280;72736;50.236;18.876;2024-02-23T02:55:26;96780.36;;;8.87;69.06
82949;BME280;72736;50.236;18.876;2024-02-23T03:00:32;96783.11;;;8.86;69.60
82949;BME280;72736;50.236;18.876;2024-02-23T03:05:38;96787.89;;;8.82;70.14
82949;BME280;72736;50.236;18.876;2024-02-23T03:10:44;96788.83;;;8.78;70.32
82949;BME280;72736;50.236;18.876;2024-02-23T03:15:50;96791.46;;;8.74;70.65
82949;BME280;72736;50.236;18.876;2024-02-23T03:20:55;96796.33;;;8.70;70.85
82949;BME280;72736;50.236;18.876;2024-02-23T03:26:01;96796.56;;;8.66;71.40
82949;BME280;72736;50.236;18.876;2024-02-23T03:31:07;96804.27;;;8.61;71.68
82949;BME280;72736;50.236;18.876;2024-02-23T03:36:12;96806.46;;;8.56;71.94
82949;BME280;72736;50.236;18.876;2024-02-23T03:41:18;96807.11;;;8.53;72.27
82949;BME280;72736;50.236;18.876;2024-02-23T03:46:24;96811.05;;;8.49;72.53
82949;BME280;72736;50.236;18.876;2024-02-23T03:51:30;96807.45;;;8.47;72.58
82949;BME280;72736;50.236;18.876;2024-02-23T03:56:41;96816.16;;;8.44;72.60
82949;BME280;72736;50.236;18.876;2024-02-23T04:01:47;96814.30;;;8.42;72.79
82949;BME280;72736;50.236;18.876;2024-02-23T04:06:53;96817.30;;;8.43;72.76
82949;BME280;72736;50.236;18.876;2024-02-23T04:11:58;96820.48;;;8.41;72.80
82949;BME280;72736;50.236;18.876;2024-02-23T04:17:04;96832.40;;;8.39;72.96
82949;BME280;72736;50.236;18.876;2024-02-23T04:22:11;96827.82;;;8.39;72.88
82949;BME280;72736;50.236;18.876;2024-02-23T04:27:15;96837.08;;;8.37;73.17
82949;BME280;72736;50.236;18.876;2024-02-23T04:32:21;96838.30;;;8.37;73.33
82949;BME280;72736;50.236;18.876;2024-02-23T04:37:26;96848.27;;;8.36;73.63
82949;BME280;72736;50.236;18.876;2024-02-23T04:42:32;96855.30;;;8.34;73.75
82949;BME280;72736;50.236;18.876;2024-02-23T04:47:38;96849.68;;;8.33;74.34
82949;BME280;72736;50.236;18.876;2024-02-23T04:52:45;96852.02;;;8.32;74.60
82949;BME280;72736;50.236;18.876;2024-02-23T04:57:50;96851.91;;;8.32;75.09
82949;BME280;72736;50.236;18.876;2024-02-23T05:02:56;96862.55;;;8.29;75.39
82949;BME280;72736;50.236;18.876;2024-02-23T05:08:03;96872.91;;;8.25;75.95
82949;BME280;72736;50.236;18.876;2024-02-23T05:13:09;96880.60;;;8.21;76.23
82949;BME280;72736;50.236;18.876;2024-02-23T05:18:15;96880.68;;;8.19;76.49
82949;BME280;72736;50.236;18.876;2024-02-23T05:23:20;96883.14;;;8.15;76.90
82949;BME280;72736;50.236;18.876;2024-02-23T05:28:26;96882.09;;;8.12;76.84
82949;BME280;72736;50.236;18.876;2024-02-23T05:33:32;96885.16;;;8.11;77.05
82949;BME280;72736;50.236;18.876;2024-02-23T05:38:38;96889.46;;;8.09;77.16
82949;BME280;72736;50.236;18.876;2024-02-23T05:43:43;96904.70;;;8.07;77.61
82949;BME280;72736;50.236;18.876;2024-02-23T05:48:49;96913.16;;;8.02;77.52
82949;BME280;72736;50.236;18.876;2024-02-23T05:53:55;96921.30;;;8.00;77.75
82949;BME280;72736;50.236;18.876;2024-02-23T05:59:00;96930.62;;;7.99;77.78
82949;BME280;72736;50.236;18.876;2024-02-23T06:04:07;96942.58;;;7.96;78.08
82949;BME280;72736;50.236;18.876;2024-02-23T06:09:13;96951.90;;;7.96;78.13
82949;BME280;72736;50.236;18.876;2024-02-23T06:14:20;96957.98;;;7.96;78.28
82949;BME280;72736;50.236;18.876;2024-02-23T06:19:27;96959.20;;;7.96;78.49
82949;BME280;72736;50.236;18.876;2024-02-23T06:24:33;96961.98;;;7.96;78.51
82949;BME280;72736;50.236;18.876;2024-02-23T06:29:39;96969.63;;;7.96;78.75
82949;BME280;72736;50.236;18.876;2024-02-23T06:34:44;96987.22;;;7.96;78.87
82949;BME280;72736;50.236;18.876;2024-02-23T06:39:50;97002.84;;;7.97;78.99
82949;BME280;72736;50.236;18.876;2024-02-23T06:44:59;97021.80;;;7.96;79.24
82949;BME280;72736;50.236;18.876;2024-02-23T06:50:07;97030.25;;;7.96;79.40
82949;BME280;72736;50.236;18.876;2024-02-23T06:55:14;97042.67;;;7.96;79.45
82949;BME280;72736;50.236;18.876;2024-02-23T07:00:24;97044.83;;;7.98;79.65
82949;BME280;72736;50.236;18.876;2024-02-23T07:05:30;97045.39;;;8.00;79.82
82949;BME280;72736;50.236;18.876;2024-02-23T07:10:37;97043.25;;;8.04;80.04
82949;BME280;72736;50.236;18.876;2024-02-23T07:15:43;97044.54;;;8.07;80.17
82949;BME280;72736;50.236;18.876;2024-02-23T07:20:49;97043.27;;;8.09;80.21
82949;BME280;72736;50.236;18.876;2024-02-23T07:25:55;97043.66;;;8.12;80.25
82949;BME280;72736;50.236;18.876;2024-02-23T07:31:00;97048.44;;;8.15;80.37
82949;BME280;72736;50.236;18.876;2024-02-23T07:36:09;97049.91;;;8.17;80.38
82949;BME280;72736;50.236;18.876;2024-02-23T07:41:17;97047.52;;;8.17;80.37
82949;BME280;72736;50.236;18.876;2024-02-23T07:46:21;97050.58;;;8.18;80.69
82949;BME280;72736;50.236;18.876;2024-02-23T07:51:32;97060.98;;;8.19;80.65
82949;BME280;72736;50.236;18.876;2024-02-23T07:56:38;97063.63;;;8.18;80.59
82949;BME280;72736;50.236;18.876;2024-02-23T08:01:44;97068.62;;;8.20;80.77
82949;BME280;72736;50.236;18.876;2024-02-23T08:06:49;97070.13;;;8.20;80.86
82949;BME280;72736;50.236;18.876;2024-02-23T08:11:56;97070.97;;;8.20;81.08
82949;BME280;72736;50.236;18.876;2024-02-23T08:17:02;97074.42;;;8.18;81.17
82949;BME280;72736;50.236;18.876;2024-02-23T08:22:08;97082.46;;;8.18;81.29
82949;BME280;72736;50.236;18.876;2024-02-23T08:27:13;97087.72;;;8.19;81.38
82949;BME280;72736;50.236;18.876;2024-02-23T08:32:19;97087.36;;;8.21;81.45
82949;BME280;72736;50.236;18.876;2024-02-23T08:37:25;97085.54;;;8.23;81.53
82949;BME280;72736;50.236;18.876;2024-02-23T08:42:31;97088.14;;;8.26;81.49
82949;BME280;72736;50.236;18.876;2024-02-23T08:47:36;97092.02;;;8.30;81.66
82949;BME280;72736;50.236;18.876;2024-02-23T08:52:42;97088.98;;;8.29;81.74
82949;BME280;72736;50.236;18.876;2024-02-23T08:57:49;97094.98;;;8.27;81.70
82949;BME280;72736;50.236;18.876;2024-02-23T09:02:55;97096.61;;;8.26;81.74
82949;BME280;72736;50.236;18.876;2024-02-23T09:08:01;97093.94;;;8.29;81.86
82949;BME280;72736;50.236;18.876;2024-02-23T09:13:07;97097.60;;;8.31;82.00
82949;BME280;72736;50.236;18.876;2024-02-23T09:18:13;97099.63;;;8.35;81.87
82949;BME280;72736;50.236;18.876;2024-02-23T09:23:18;97115.80;;;8.39;82.20
82949;BME280;72736;50.236;18.876;2024-02-23T09:28:24;97125.51;;;8.43;82.32
82949;BME280;72736;50.236;18.876;2024-02-23T09:33:30;97137.13;;;8.49;82.43
82949;BME280;72736;50.236;18.876;2024-02-23T09:38:36;97137.66;;;8.56;82.57
82949;BME280;72736;50.236;18.876;2024-02-23T09:43:43;97144.71;;;8.68;82.40
82949;BME280;72736;50.236;18.876;2024-02-23T09:48:50;97152.40;;;8.79;82.38
82949;BME280;72736;50.236;18.876;2024-02-23T09:53:57;97161.26;;;8.90;82.49
82949;BME280;72736;50.236;18.876;2024-02-23T09:59:04;97155.85;;;9.00;82.21
82949;BME280;72736;50.236;18.876;2024-02-23T10:04:10;97159.92;;;9.06;81.93
82949;BME280;72736;50.236;18.876;2024-02-23T10:09:16;97172.00;;;9.10;81.84
82949;BME280;72736;50.236;18.876;2024-02-23T10:14:23;97164.90;;;9.11;81.68
82949;BME280;72736;50.236;18.876;2024-02-23T10:19:29;97160.95;;;9.14;81.51
82949;BME280;72736;50.236;18.876;2024-02-23T10:24:35;97150.30;;;9.18;81.27
82949;BME280;72736;50.236;18.876;2024-02-23T10:29:41;97158.86;;;9.18;80.89
82949;BME280;72736;50.236;18.876;2024-02-23T10:34:48;97161.79;;;9.22;81.01
82949;BME280;72736;50.236;18.876;2024-02-23T10:39:58;97155.52;;;9.26;80.47
82949;BME280;72736;50.236;18.876;2024-02-23T10:45:09;97167.02;;;9.30;80.23
82949;BME280;72736;50.236;18.876;2024-02-23T10:50:15;97181.59;;;9.30;79.84
82949;BME280;72736;50.236;18.876;2024-02-23T10:55:26;97187.67;;;9.27;79.60
82949;BME280;72736;50.236;18.876;2024-02-23T11:00:33;97198.05;;;9.25;79.55
82949;BME280;72736;50.236;18.876;2024-02-23T11:05:39;97201.35;;;9.20;79.64
82949;BME280;72736;50.236;18.876;2024-02-23T11:10:50;97194.81;;;9.14;79.75
82949;BME280;72736;50.236;18.876;2024-02-23T11:16:02;97193.48;;;9.10;79.83
82949;BME280;72736;50.236;18.876;2024-02-23T11:21:10;97198.91;;;9.06;80.10
82949;BME280;72736;50.236;18.876;2024-02-23T11:26:17;97218.13;;;9.04;80.38
82949;BME280;72736;50.236;18.876;2024-02-23T11:31:24;97214.79;;;9.06;80.81
82949;BME280;72736;50.236;18.876;2024-02-23T11:36:31;97212.44;;;9.06;80.60
82949;BME280;72736;50.236;18.876;2024-02-23T11:41:38;97215.36;;;9.09;80.81
82949;BME280;72736;50.236;18.876;2024-02-23T11:46:44;97223.60;;;9.13;80.90
82949;BME280;72736;50.236;18.876;2024-02-23T11:51:52;97235.34;;;9.16;80.89
82949;BME280;72736;50.236;18.876;2024-02-23T11:56:59;97239.67;;;9.21;81.51
82949;BME280;72736;50.236;18.876;2024-02-23T12:02:06;97258.21;;;9.36;81.92
82949;BME280;72736;50.236;18.876;2024-02-23T12:07:13;97274.50;;;9.54;81.87
82949;BME280;72736;50.236;18.876;2024-02-23T12:12:20;97267.04;;;9.70;81.78
82949;BME280;72736;50.236;18.876;2024-02-23T12:17:26;97254.52;;;9.86;81.54
82949;BME280;72736;50.236;18.876;2024-02-23T12:22:30;97237.51;;;10.01;81.66
82949;BME280;72736;50.236;18.876;2024-02-23T12:27:36;97247.73;;;10.18;81.52
82949;BME280;72736;50.236;18.876;2024-02-23T12:32:42;97254.52;;;10.31;81.19
82949;BME280;72736;50.236;18.876;2024-02-23T12:37:50;97248.48;;;10.40;80.85
82949;BME280;72736;50.236;18.876;2024-02-23T12:42:56;97248.44;;;10.48;80.65
82949;BME280;72736;50.236;18.876;2024-02-23T12:48:01;97247.34;;;10.64;81.10
82949;BME280;72736;50.236;18.876;2024-02-23T12:53:07;97253.22;;;10.69;79.82
82949;BME280;72736;50.236;18.876;2024-02-23T12:58:13;97260.69;;;10.60;79.54
82949;BME280;72736;50.236;18.876;2024-02-23T13:03:19;97269.16;;;10.49;79.56
82949;BME280;72736;50.236;18.876;2024-02-23T13:08:23;97269.32;;;10.36;79.62
82949;BME280;72736;50.236;18.876;2024-02-23T13:13:29;97274.86;;;10.26;79.93
82949;BME280;72736;50.236;18.876;2024-02-23T13:18:36;97272.46;;;10.18;79.94
82949;BME280;72736;50.236;18.876;2024-02-23T13:23:42;97270.92;;;10.09;79.97
82949;BME280;72736;50.236;18.876;2024-02-23T13:28:48;97270.86;;;10.03;79.93
82949;BME280;72736;50.236;18.876;2024-02-23T13:33:53;97274.16;;;9.97;79.75
82949;BME280;72736;50.236;18.876;2024-02-23T13:38:59;97275.28;;;9.92;79.84
82949;BME280;72736;50.236;18.876;2024-02-23T13:44:05;97290.40;;;9.90;80.03
82949;BME280;72736;50.236;18.876;2024-02-23T13:49:12;97306.67;;;9.88;79.95
82949;BME280;72736;50.236;18.876;2024-02-23T13:54:18;97305.22;;;9.82;80.03
82949;BME280;72736;50.236;18.876;2024-02-23T13:59:24;97305.38;;;9.78;80.00
82949;BME280;72736;50.236;18.876;2024-02-23T14:04:30;97307.40;;;9.73;80.13
82949;BME280;72736;50.236;18.876;2024-02-23T14:09:36;97308.10;;;9.68;80.20
82949;BME280;72736;50.236;18.876;2024-02-23T14:14:42;97310.50;;;9.64;80.12
82949;BME280;72736;50.236;18.876;2024-02-23T14:19:46;97320.86;;;9.59;79.94
82949;BME280;72736;50.236;18.876;2024-02-23T14:24:52;97319.64;;;9.51;79.65
82949;BME280;72736;50.236;18.876;2024-02-23T14:29:58;97321.09;;;9.46;79.63
82949;BME280;72736;50.236;18.876;2024-02-23T14:35:03;97316.34;;;9.42;79.81
82949;BME280;72736;50.236;18.876;2024-02-23T14:40:10;97320.20;;;9.39;79.95
82949;BME280;72736;50.236;18.876;2024-02-23T14:45:18;97307.94;;;9.37;80.26
82949;BME280;72736;50.236;18.876;2024-02-23T14:50:26;97302.36;;;9.36;80.39
82949;BME280;72736;50.236;18.876;2024-02-23T14:55:33;97305.71;;;9.34;80.54
82949;BME280;72736;50.236;18.876;2024-02-23T15:00:39;97311.38;;;9.34;80.43
82949;BME280;72736;50.236;18.876;2024-02-23T15:05:45;97312.89;;;9.32;80.54
82949;BME280;72736;50.236;18.876;2024-02-23T15:10:51;97304.72;;;9.28;80.77
82949;BME280;72736;50.236;18.876;2024-02-23T15:15:57;97306.34;;;9.26;80.72
82949;BME280;72736;50.236;18.876;2024-02-23T15:21:04;97301.84;;;9.22;80.73
82949;BME280;72736;50.236;18.876;2024-02-23T15:26:10;97295.42;;;9.19;80.88
82949;BME280;72736;50.236;18.876;2024-02-23T15:31:15;97302.48;;;9.16;80.81
82949;BME280;72736;50.236;18.876;2024-02-23T15:36:21;97309.80;;;9.11;80.98
82949;BME280;72736;50.236;18.876;2024-02-23T15:41:27;97306.16;;;9.08;80.94
82949;BME280;72736;50.236;18.876;2024-02-23T15:46:32;97309.73;;;9.05;81.04
82949;BME280;72736;50.236;18.876;2024-02-23T15:51:38;97308.89;;;9.01;80.96
82949;BME280;72736;50.236;18.876;2024-02-23T15:56:58;97310.05;;;8.97;81.01
82949;BME280;72736;50.236;18.876;2024-02-23T16:02:05;97311.94;;;8.94;80.93
82949;BME280;72736;50.236;18.876;2024-02-23T16:07:12;97316.55;;;8.89;81.01
82949;BME280;72736;50.236;18.876;2024-02-23T16:12:20;97319.14;;;8.84;81.08
82949;BME280;72736;50.236;18.876;2024-02-23T16:17:25;97324.36;;;8.83;81.19
82949;BME280;72736;50.236;18.876;2024-02-23T16:22:31;97329.57;;;8.82;81.18
82949;BME280;72736;50.236;18.876;2024-02-23T16:27:37;97334.47;;;8.81;81.37
82949;BME280;72736;50.236;18.876;2024-02-23T16:32:46;97330.77;;;8.77;81.30
82949;BME280;72736;50.236;18.876;2024-02-23T16:37:54;97333.21;;;8.73;81.38
82949;BME280;72736;50.236;18.876;2024-02-23T16:43:00;97322.44;;;8.70;81.35
82949;BME280;72736;50.236;18.876;2024-02-23T16:48:07;97306.38;;;8.68;81.39
82949;BME280;72736;50.236;18.876;2024-02-23T16:53:14;97301.89;;;8.65;81.41
82949;BME280;72736;50.236;18.876;2024-02-23T16:58:20;97311.72;;;8.62;81.43
82949;BME280;72736;50.236;18.876;2024-02-23T17:03:28;97322.61;;;8.61;81.44
82949;BME280;72736;50.236;18.876;2024-02-23T17:08:34;97322.73;;;8.59;81.64
82949;BME280;72736;50.236;18.876;2024-02-23T17:13:40;97322.39;;;8.58;81.43
82949;BME280;72736;50.236;18.876;2024-02-23T17:18:47;97325.24;;;8.57;81.62
82949;BME280;72736;50.236;18.876;2024-02-23T17:23:53;97333.79;;;8.57;81.52
82949;BME280;72736;50.236;18.876;2024-02-23T17:28:59;97335.21;;;8.55;81.44
82949;BME280;72736;50.236;18.876;2024-02-23T17:34:05;97331.21;;;8.53;81.51
82949;BME280;72736;50.236;18.876;2024-02-23T17:39:11;97336.00;;;8.50;81.45
82949;BME280;72736;50.236;18.876;2024-02-23T17:44:15;97339.97;;;8.48;81.53
82949;BME280;72736;50.236;18.876;2024-02-23T17:49:22;97336.77;;;8.45;81.58
82949;BME280;72736;50.236;18.876;2024-02-23T17:54:29;97332.62;;;8.43;81.67
82949;BME280;72736;50.236;18.876;2024-02-23T17:59:34;97325.14;;;8.43;81.65
82949;BME280;72736;50.236;18.876;2024-02-23T18:04:41;97323.52;;;8.40;81.68
82949;BME280;72736;50.236;18.876;2024-02-23T18:09:48;97320.38;;;8.34;81.67
82949;BME280;72736;50.236;18.876;2024-02-23T18:14:53;97318.64;;;8.29;81.86
82949;BME280;72736;50.236;18.876;2024-02-23T18:19:59;97319.70;;;8.27;81.85
82949;BME280;72736;50.236;18.876;2024-02-23T18:25:06;97315.39;;;8.24;81.77
82949;BME280;72736;50.236;18.876;2024-02-23T18:30:14;97316.40;;;8.24;81.71
82949;BME280;72736;50.236;18.876;2024-02-23T18:35:20;97315.61;;;8.21;81.78
82949;BME280;72736;50.236;18.876;2024-02-23T18:40:25;97315.70;;;8.18;81.79
82949;BME280;72736;50.236;18.876;2024-02-23T18:45:31;97317.91;;;8.14;81.83
82949;BME280;72736;50.236;18.876;2024-02-23T18:50:38;97319.66;;;8.13;81.89
82949;BME280;72736;50.236;18.876;2024-02-23T18:55:44;97327.55;;;8.11;81.89
82949;BME280;72736;50.236;18.876;2024-02-23T19:00:50;97325.56;;;8.10;82.07
82949;BME280;72736;50.236;18.876;2024-02-23T19:06:01;97311.54;;;8.07;82.10
82949;BME280;72736;50.236;18.876;2024-02-23T19:11:07;97315.42;;;8.04;82.07
82949;BME280;72736;50.236;18.876;2024-02-23T19:16:16;97297.00;;;8.00;82.09
82949;BME280;72736;50.236;18.876;2024-02-23T19:21:23;97295.06;;;7.96;82.11
82949;BME280;72736;50.236;18.876;2024-02-23T19:26:29;97297.00;;;7.97;82.13
82949;BME280;72736;50.236;18.876;2024-02-23T19:31:35;97299.68;;;7.98;82.20
82949;BME280;72736;50.236;18.876;2024-02-23T19:36:41;97295.34;;;7.99;82.15
82949;BME280;72736;50.236;18.876;2024-02-23T19:41:47;97284.44;;;7.99;82.20
82949;BME280;72736;50.236;18.876;2024-02-23T19:46:52;97281.13;;;7.98;82.32
82949;BME280;72736;50.236;18.876;2024-02-23T19:51:58;97274.79;;;7.99;82.16
82949;BME280;72736;50.236;18.876;2024-02-23T19:57:03;97277.02;;;7.98;82.08
82949;BME280;72736;50.236;18.876;2024-02-23T20:02:09;97284.84;;;7.97;82.21
82949;BME280;72736;50.236;18.876;2024-02-23T20:07:18;97274.23;;;7.98;82.24
82949;BME280;72736;50.236;18.876;2024-02-23T20:12:25;97265.60;;;7.97;82.34
82949;BME280;72736;50.236;18.876;2024-02-23T20:17:31;97258.86;;;7.96;82.34
82949;BME280;72736;50.236;18.876;2024-02-23T20:22:41;97251.22;;;7.94;82.30
82949;BME280;72736;50.236;18.876;2024-02-23T20:27:47;97242.92;;;7.92;82.44
82949;BME280;72736;50.236;18.876;2024-02-23T20:32:53;97237.08;;;7.92;82.31
82949;BME280;72736;50.236;18.876;2024-02-23T20:37:59;97238.54;;;7.91;82.33
82949;BME280;72736;50.236;18.876;2024-02-23T20:43:05;97233.92;;;7.90;82.42
82949;BME280;72736;50.236;18.876;2024-02-23T20:48:09;97231.10;;;7.89;82.52
82949;BME280;72736;50.236;18.876;2024-02-23T20:53:16;97222.09;;;7.87;82.57
82949;BME280;72736;50.236;18.876;2024-02-23T20:58:22;97215.29;;;7.85;82.50
82949;BME280;72736;50.236;18.876;2024-02-23T21:03:28;97227.20;;;7.83;82.48
82949;BME280;72736;50.236;18.876;2024-02-23T21:08:34;97225.28;;;7.83;82.53
82949;BME280;72736;50.236;18.876;2024-02-23T21:13:40;97223.27;;;7.81;82.55
82949;BME280;72736;50.236;18.876;2024-02-23T21:18:45;97221.64;;;7.79;82.55
82949;BME280;72736;50.236;18.876;2024-02-23T21:23:52;97211.39;;;7.77;82.58
82949;BME280;72736;50.236;18.876;2024-02-23T21:28:59;97201.90;;;7.74;82.54
82949;BME280;72736;50.236;18.876;2024-02-23T21:34:06;97207.44;;;7.71;82.39
82949;BME280;72736;50.236;18.876;2024-02-23T21:39:13;97198.93;;;7.69;82.41
82949;BME280;72736;50.236;18.876;2024-02-23T21:44:19;97200.59;;;7.66;82.47
82949;BME280;72736;50.236;18.876;2024-02-23T21:49:25;97203.47;;;7.63;82.24
82949;BME280;72736;50.236;18.876;2024-02-23T21:54:31;97189.52;;;7.62;82.34
82949;BME280;72736;50.236;18.876;2024-02-23T21:59:37;97178.45;;;7.60;82.50
82949;BME280;72736;50.236;18.876;2024-02-23T22:04:42;97181.22;;;7.57;82.44
82949;BME280;72736;50.236;18.876;2024-02-23T22:09:48;97185.41;;;7.56;82.54
82949;BME280;72736;50.236;18.876;2024-02-23T22:14:58;97170.09;;;7.54;82.64
82949;BME280;72736;50.236;18.876;2024-02-23T22:20:02;97159.91;;;7.55;82.59
82949;BME280;72736;50.236;18.876;2024-02-23T22:25:09;97157.21;;;7.52;82.60
82949;BME280;72736;50.236;18.876;2024-02-23T22:30:15;97151.78;;;7.53;82.65
82949;BME280;72736;50.236;18.876;2024-02-23T22:35:21;97155.48;;;7.51;82.62
82949;BME280;72736;50.236;18.876;2024-02-23T22:40:29;97150.63;;;7.49;82.74
82949;BME280;72736;50.236;18.876;2024-02-23T22:45:36;97151.11;;;7.49;82.59
82949;BME280;72736;50.236;18.876;2024-02-23T22:50:42;97149.38;;;7.49;82.67
82949;BME280;72736;50.236;18.876;2024-02-23T22:55:47;97145.38;;;7.50;82.55
82949;BME280;72736;50.236;18.876;2024-02-23T23:00:53;97149.56;;;7.52;82.47
82949;BME280;72736;50.236;18.876;2024-02-23T23:05:59;97139.02;;;7.52;82.38
82949;BME280;72736;50.236;18.876;2024-02-23T23:11:05;97140.67;;;7.52;82.35
82949;BME280;72736;50.236;18.876;2024-02-23T23:39:24;97125.05;;;7.83;81.45
82949;BME280;72736;50.236;18.876;2024-02-23T23:44:30;97121.54;;;7.87;81.33
82949;BME280;72736;50.236;18.876;2024-02-23T23:49:36;97118.34;;;7.84;81.20
82949;BME280;72736;50.236;18.876;2024-02-23T23:54:42;97116.52;;;7.81;81.46
82949;BME280;72736;50.236;18.876;2024-02-23T23:59:47;97104.86;;;7.78;81.50
